sensor_id;sensor_type;location;lat;lon;timestamp;P1;durP1;ratioP1;P2;durP2;ratioP2
41719;SDS011;27405;53.316;-6.294;2023-12-20T00:00:35;25.10;;;4.53;;
41719;SDS011;27405;53.316;-6.294;2023-12-20T00:03:02;24.17;;;4.00;;
41719;SDS011;27405;53.316;-6.294;2023-12-20T00:05:29;18.65;;;3.53;;
41719;SDS011;27405;53.316;-6.294;2023-12-20T00:07:57;23.63;;;4.50;;
41719;SDS011;27405;53.316;-6.294;2023-12-20T00:10:22;22.33;;;4.45;;
41719;SDS011;27405;53.316;-6.294;2023-12-20T00:12:48;25.42;;;4.20;;
41719;SDS011;27405;53.316;-6.294;2023-12-20T00:15:14;25.05;;;4.45;;
41719;SDS011;27405;53.316;-6.294;2023-12-20T00:17:39;25.52;;;4.57;;
41719;SDS011;27405;53.316;-6.294;2023-12-20T00:20:05;18.33;;;3.72;;
41719;SDS011;27405;53.316;-6.294;2023-12-20T00:22:31;22.27;;;4.43;;
41719;SDS011;27405;53.316;-6.294;2023-12-20T00:24:57;23.92;;;5.18;;
41719;SDS011;27405;53.316;-6.294;2023-12-20T00:27:22;28.33;;;4.78;;
41719;SDS011;27405;53.316;-6.294;2023-12-20T00:29:48;27.63;;;4.47;;
41719;SDS011;27405;53.316;-6.294;2023-12-20T00:32:15;25.60;;;4.07;;
41719;SDS011;27405;53.316;-6.294;2023-12-20T00:34:41;26.08;;;4.53;;
41719;SDS011;27405;53.316;-6.294;2023-12-20T00:37:07;22.35;;;4.13;;
41719;SDS011;27405;53.316;-6.294;2023-12-20T00:39:32;25.23;;;4.47;;
41719;SDS011;27405;53.316;-6.294;2023-12-20T00:41:58;23.30;;;4.07;;
41719;SDS011;27405;53.316;-6.294;2023-12-20T00:44:23;26.30;;;4.28;;
41719;SDS011;27405;53.316;-6.294;2023-12-20T00:46:49;22.15;;;3.30;;
41719;SDS011;27405;53.316;-6.294;2023-12-20T00:49:15;22.80;;;3.92;;
41719;SDS011;27405;53.316;-6.294;2023-12-20T00:51:40;25.10;;;4.22;;
41719;SDS011;27405;53.316;-6.294;2023-12-20T00:54:06;20.73;;;3.53;;
41719;SDS011;27405;53.316;-6.294;2023-12-20T00:56:31;19.60;;;3.22;;
41719;SDS011;27405;53.316;-6.294;2023-12-20T00:58:57;25.55;;;4.15;;
41719;SDS011;27405;53.316;-6.294;2023-12-20T01:01:22;30.60;;;3.72;;
41719;SDS011;27405;53.316;-6.294;2023-12-20T01:03:48;26.50;;;4.05;;
41719;SDS011;27405;53.316;-6.294;2023-12-20T01:06:16;24.75;;;4.13;;
41719;SDS011;27405;53.316;-6.294;2023-12-20T01:08:42;24.35;;;3.88;;
41719;SDS011;27405;53.316;-6.294;2023-12-20T01:11:07;27.30;;;4.53;;
41719;SDS011;27405;53.316;-6.294;2023-12-20T01:13:33;26.02;;;3.45;;
41719;SDS011;27405;53.316;-6.294;2023-12-20T01:15:59;20.80;;;4.10;;
41719;SDS011;27405;53.316;-6.294;2023-12-20T01:18:24;22.20;;;3.97;;
41719;SDS011;27405;53.316;-6.294;2023-12-20T01:20:50;21.77;;;3.42;;
41719;SDS011;27405;53.316;-6.294;2023-12-20T01:23:16;20.13;;;3.35;;
41719;SDS011;27405;53.316;-6.294;2023-12-20T01:25:41;21.33;;;3.85;;
41719;SDS011;27405;53.316;-6.294;2023-12-20T01:28:08;28.15;;;4.70;;
41719;SDS011;27405;53.316;-6.294;2023-12-20T01:30:33;23.67;;;3.88;;
41719;SDS011;27405;53.316;-6.294;2023-12-20T01:33:00;22.08;;;3.70;;
41719;SDS011;27405;53.316;-6.294;2023-12-20T01:35:26;20.35;;;4.00;;
41719;SDS011;27405;53.316;-6.294;2023-12-20T01:37:55;21.88;;;3.33;;
41719;SDS011;27405;53.316;-6.294;2023-12-20T01:40:22;20.80;;;3.42;;
41719;SDS011;27405;53.316;-6.294;2023-12-20T01:42:57;22.73;;;3.88;;
41719;SDS011;27405;53.316;-6.294;2023-12-20T01:47:53;25.38;;;3.90;;
41719;SDS011;27405;53.316;-6.294;2023-12-20T01:50:22;23.13;;;3.88;;
41719;SDS011;27405;53.316;-6.294;2023-12-20T01:52:48;18.63;;;2.90;;
41719;SDS011;27405;53.316;-6.294;2023-12-20T01:55:17;25.38;;;3.60;;
41719;SDS011;27405;53.316;-6.294;2023-12-20T01:57:46;25.63;;;3.80;;
41719;SDS011;27405;53.316;-6.294;2023-12-20T02:00:12;19.55;;;3.78;;
41719;SDS011;27405;53.316;-6.294;2023-12-20T02:02:40;19.98;;;3.20;;
41719;SDS011;27405;53.316;-6.294;2023-12-20T02:05:06;22.08;;;3.53;;
41719;SDS011;27405;53.316;-6.294;2023-12-20T02:07:32;20.98;;;3.25;;
41719;SDS011;27405;53.316;-6.294;2023-12-20T02:10:00;16.52;;;3.13;;
41719;SDS011;27405;53.316;-6.294;2023-12-20T02:12:26;15.30;;;2.70;;
41719;SDS011;27405;53.316;-6.294;2023-12-20T02:14:51;16.77;;;3.70;;
41719;SDS011;27405;53.316;-6.294;2023-12-20T02:17:19;23.27;;;3.22;;
41719;SDS011;27405;53.316;-6.294;2023-12-20T02:19:45;19.73;;;3.97;;
41719;SDS011;27405;53.316;-6.294;2023-12-20T02:22:11;16.02;;;3.17;;
41719;SDS011;27405;53.316;-6.294;2023-12-20T02:24:37;19.58;;;3.05;;
41719;SDS011;27405;53.316;-6.294;2023-12-20T02:27:03;13.32;;;2.60;;
41719;SDS011;27405;53.316;-6.294;2023-12-20T02:29:32;14.00;;;2.80;;
41719;SDS011;27405;53.316;-6.294;2023-12-20T02:31:58;15.05;;;2.40;;
41719;SDS011;27405;53.316;-6.294;2023-12-20T02:34:24;20.67;;;3.38;;
41719;SDS011;27405;53.316;-6.294;2023-12-20T02:36:49;17.05;;;3.30;;
41719;SDS011;27405;53.316;-6.294;2023-12-20T02:39:15;22.75;;;2.92;;
41719;SDS011;27405;53.316;-6.294;2023-12-20T02:41:41;21.52;;;2.60;;
41719;SDS011;27405;53.316;-6.294;2023-12-20T02:44:07;15.68;;;2.78;;
41719;SDS011;27405;53.316;-6.294;2023-12-20T02:46:32;21.38;;;3.25;;
41719;SDS011;27405;53.316;-6.294;2023-12-20T02:48:58;21.23;;;3.10;;
41719;SDS011;27405;53.316;-6.294;2023-12-20T02:51:23;17.05;;;2.33;;
41719;SDS011;27405;53.316;-6.294;2023-12-20T02:53:49;14.38;;;2.42;;
41719;SDS011;27405;53.316;-6.294;2023-12-20T02:56:15;19.77;;;2.75;;
41719;SDS011;27405;53.316;-6.294;2023-12-20T02:58:40;11.38;;;2.15;;
41719;SDS011;27405;53.316;-6.294;2023-12-20T03:01:06;16.35;;;2.58;;
41719;SDS011;27405;53.316;-6.294;2023-12-20T03:03:32;13.40;;;2.10;;
41719;SDS011;27405;53.316;-6.294;2023-12-20T03:05:57;14.20;;;2.53;;
41719;SDS011;27405;53.316;-6.294;2023-12-20T03:08:23;10.95;;;2.28;;
41719;SDS011;27405;53.316;-6.294;2023-12-20T03:10:49;18.45;;;2.63;;
41719;SDS011;27405;53.316;-6.294;2023-12-20T03:13:15;17.70;;;2.67;;
41719;SDS011;27405;53.316;-6.294;2023-12-20T03:15:40;16.52;;;2.70;;
41719;SDS011;27405;53.316;-6.294;2023-12-20T03:18:06;18.70;;;2.83;;
41719;SDS011;27405;53.316;-6.294;2023-12-20T03:20:31;16.33;;;2.40;;
41719;SDS011;27405;53.316;-6.294;2023-12-20T03:22:59;16.50;;;2.53;;
41719;SDS011;27405;53.316;-6.294;2023-12-20T03:25:25;24.60;;;2.53;;
41719;SDS011;27405;53.316;-6.294;2023-12-20T03:27:51;13.18;;;2.60;;
41719;SDS011;27405;53.316;-6.294;2023-12-20T03:30:17;20.75;;;3.20;;
41719;SDS011;27405;53.316;-6.294;2023-12-20T03:32:42;17.85;;;3.22;;
41719;SDS011;27405;53.316;-6.294;2023-12-20T03:35:08;19.50;;;3.40;;
41719;SDS011;27405;53.316;-6.294;2023-12-20T03:37:34;14.13;;;2.88;;
41719;SDS011;27405;53.316;-6.294;2023-12-20T03:40:00;12.40;;;2.40;;
41719;SDS011;27405;53.316;-6.294;2023-12-20T03:42:26;23.35;;;3.60;;
41719;SDS011;27405;53.316;-6.294;2023-12-20T03:44:51;18.23;;;2.97;;
41719;SDS011;27405;53.316;-6.294;2023-12-20T03:47:17;13.52;;;2.65;;
41719;SDS011;27405;53.316;-6.294;2023-12-20T03:49:43;16.17;;;2.53;;
41719;SDS011;27405;53.316;-6.294;2023-12-20T03:52:08;15.65;;;3.03;;
41719;SDS011;27405;53.316;-6.294;2023-12-20T03:54:37;15.55;;;2.33;;
41719;SDS011;27405;53.316;-6.294;2023-12-20T03:57:02;15.90;;;2.25;;
41719;SDS011;27405;53.316;-6.294;2023-12-20T03:59:28;19.20;;;2.70;;
41719;SDS011;27405;53.316;-6.294;2023-12-20T04:01:54;16.67;;;2.50;;
41719;SDS011;27405;53.316;-6.294;2023-12-20T04:04:20;12.80;;;2.20;;
41719;SDS011;27405;53.316;-6.294;2023-12-20T04:06:46;9.98;;;2.00;;
41719;SDS011;27405;53.316;-6.294;2023-12-20T04:09:11;12.35;;;2.10;;
41719;SDS011;27405;53.316;-6.294;2023-12-20T04:11:37;15.48;;;2.72;;
41719;SDS011;27405;53.316;-6.294;2023-12-20T04:14:03;11.52;;;1.98;;
41719;SDS011;27405;53.316;-6.294;2023-12-20T04:16:30;13.75;;;2.42;;
41719;SDS011;27405;53.316;-6.294;2023-12-20T04:18:55;8.85;;;1.98;;
41719;SDS011;27405;53.316;-6.294;2023-12-20T04:21:21;15.57;;;2.53;;
41719;SDS011;27405;53.316;-6.294;2023-12-20T04:23:47;16.10;;;2.67;;
41719;SDS011;27405;53.316;-6.294;2023-12-20T04:26:12;14.15;;;2.30;;
41719;SDS011;27405;53.316;-6.294;2023-12-20T04:28:38;14.93;;;2.30;;
41719;SDS011;27405;53.316;-6.294;2023-12-20T04:31:03;16.05;;;2.67;;
41719;SDS011;27405;53.316;-6.294;2023-12-20T04:33:29;14.95;;;2.50;;
41719;SDS011;27405;53.316;-6.294;2023-12-20T04:35:55;11.95;;;2.08;;
41719;SDS011;27405;53.316;-6.294;2023-12-20T04:38:20;13.45;;;2.13;;
41719;SDS011;27405;53.316;-6.294;2023-12-20T04:40:46;13.05;;;1.92;;
41719;SDS011;27405;53.316;-6.294;2023-12-20T04:43:13;16.13;;;2.13;;
41719;SDS011;27405;53.316;-6.294;2023-12-20T04:45:38;10.95;;;2.72;;
41719;SDS011;27405;53.316;-6.294;2023-12-20T04:48:04;16.02;;;2.50;;
41719;SDS011;27405;53.316;-6.294;2023-12-20T04:50:30;11.93;;;1.92;;
41719;SDS011;27405;53.316;-6.294;2023-12-20T04:52:56;14.73;;;2.30;;
41719;SDS011;27405;53.316;-6.294;2023-12-20T04:55:21;13.43;;;2.28;;
41719;SDS011;27405;53.316;-6.294;2023-12-20T04:57:47;14.25;;;2.28;;
41719;SDS011;27405;53.316;-6.294;2023-12-20T05:00:13;14.18;;;2.28;;
41719;SDS011;27405;53.316;-6.294;2023-12-20T05:02:40;10.98;;;2.30;;
41719;SDS011;27405;53.316;-6.294;2023-12-20T05:05:06;16.92;;;2.30;;
41719;SDS011;27405;53.316;-6.294;2023-12-20T05:07:32;13.05;;;2.42;;
41719;SDS011;27405;53.316;-6.294;2023-12-20T05:09:58;11.20;;;2.22;;
41719;SDS011;27405;53.316;-6.294;2023-12-20T05:12:24;15.65;;;2.38;;
41719;SDS011;27405;53.316;-6.294;2023-12-20T05:14:50;15.23;;;2.25;;
41719;SDS011;27405;53.316;-6.294;2023-12-20T05:17:19;10.43;;;2.28;;
41719;SDS011;27405;53.316;-6.294;2023-12-20T05:19:45;17.90;;;2.90;;
41719;SDS011;27405;53.316;-6.294;2023-12-20T05:22:11;19.05;;;2.90;;
41719;SDS011;27405;53.316;-6.294;2023-12-20T05:24:36;11.27;;;2.20;;
41719;SDS011;27405;53.316;-6.294;2023-12-20T05:27:02;12.20;;;2.05;;
41719;SDS011;27405;53.316;-6.294;2023-12-20T05:29:28;12.07;;;2.00;;
41719;SDS011;27405;53.316;-6.294;2023-12-20T05:31:54;15.50;;;2.65;;
41719;SDS011;27405;53.316;-6.294;2023-12-20T05:34:19;14.52;;;2.25;;
41719;SDS011;27405;53.316;-6.294;2023-12-20T05:36:45;13.20;;;2.22;;
41719;SDS011;27405;53.316;-6.294;2023-12-20T05:39:11;11.80;;;2.10;;
41719;SDS011;27405;53.316;-6.294;2023-12-20T05:41:37;11.50;;;2.15;;
41719;SDS011;27405;53.316;-6.294;2023-12-20T05:44:02;13.00;;;1.98;;
41719;SDS011;27405;53.316;-6.294;2023-12-20T05:46:28;16.95;;;3.05;;
41719;SDS011;27405;53.316;-6.294;2023-12-20T05:48:54;16.40;;;2.20;;
41719;SDS011;27405;53.316;-6.294;2023-12-20T05:51:19;10.25;;;2.28;;
41719;SDS011;27405;53.316;-6.294;2023-12-20T05:53:45;16.17;;;2.10;;
41719;SDS011;27405;53.316;-6.294;2023-12-20T05:56:10;12.45;;;2.10;;
41719;SDS011;27405;53.316;-6.294;2023-12-20T05:58:37;15.95;;;2.47;;
41719;SDS011;27405;53.316;-6.294;2023-12-20T06:01:04;14.85;;;2.08;;
41719;SDS011;27405;53.316;-6.294;2023-12-20T06:03:30;16.50;;;2.65;;
41719;SDS011;27405;53.316;-6.294;2023-12-20T06:05:55;9.40;;;1.90;;
41719;SDS011;27405;53.316;-6.294;2023-12-20T06:08:21;12.38;;;1.95;;
41719;SDS011;27405;53.316;-6.294;2023-12-20T06:10:47;15.05;;;2.40;;
41719;SDS011;27405;53.316;-6.294;2023-12-20T06:13:12;17.45;;;2.90;;
41719;SDS011;27405;53.316;-6.294;2023-12-20T06:15:39;12.43;;;2.70;;
41719;SDS011;27405;53.316;-6.294;2023-12-20T06:18:05;16.40;;;2.25;;
41719;SDS011;27405;53.316;-6.294;2023-12-20T06:20:31;17.02;;;2.85;;
41719;SDS011;27405;53.316;-6.294;2023-12-20T06:22:57;17.25;;;2.55;;
41719;SDS011;27405;53.316;-6.294;2023-12-20T06:25:23;15.45;;;2.85;;
41719;SDS011;27405;53.316;-6.294;2023-12-20T06:27:49;13.95;;;2.17;;
41719;SDS011;27405;53.316;-6.294;2023-12-20T06:30:15;17.92;;;2.22;;
41719;SDS011;27405;53.316;-6.294;2023-12-20T06:32:41;12.82;;;2.92;;
41719;SDS011;27405;53.316;-6.294;2023-12-20T06:35:08;15.45;;;2.70;;
41719;SDS011;27405;53.316;-6.294;2023-12-20T06:37:34;19.23;;;2.70;;
41719;SDS011;27405;53.316;-6.294;2023-12-20T06:40:00;13.55;;;2.30;;
41719;SDS011;27405;53.316;-6.294;2023-12-20T06:42:26;15.05;;;2.72;;
41719;SDS011;27405;53.316;-6.294;2023-12-20T06:44:52;12.98;;;2.17;;
41719;SDS011;27405;53.316;-6.294;2023-12-20T06:47:17;12.23;;;1.92;;
41719;SDS011;27405;53.316;-6.294;2023-12-20T06:49:43;14.82;;;2.40;;
41719;SDS011;27405;53.316;-6.294;2023-12-20T06:52:09;11.70;;;1.73;;
41719;SDS011;27405;53.316;-6.294;2023-12-20T06:54:35;9.85;;;2.10;;
41719;SDS011;27405;53.316;-6.294;2023-12-20T06:57:01;7.57;;;1.83;;
41719;SDS011;27405;53.316;-6.294;2023-12-20T06:59:28;9.90;;;1.73;;
41719;SDS011;27405;53.316;-6.294;2023-12-20T07:01:54;10.38;;;2.00;;
41719;SDS011;27405;53.316;-6.294;2023-12-20T07:04:20;13.30;;;2.25;;
41719;SDS011;27405;53.316;-6.294;2023-12-20T07:06:47;14.55;;;2.35;;
41719;SDS011;27405;53.316;-6.294;2023-12-20T07:09:13;11.82;;;2.08;;
41719;SDS011;27405;53.316;-6.294;2023-12-20T07:11:40;12.88;;;1.95;;
41719;SDS011;27405;53.316;-6.294;2023-12-20T07:14:05;12.32;;;2.03;;
41719;SDS011;27405;53.316;-6.294;2023-12-20T07:16:31;11.50;;;1.80;;
41719;SDS011;27405;53.316;-6.294;2023-12-20T07:18:57;9.93;;;1.45;;
41719;SDS011;27405;53.316;-6.294;2023-12-20T07:21:22;11.32;;;1.70;;
41719;SDS011;27405;53.316;-6.294;2023-12-20T07:23:48;13.90;;;2.10;;
41719;SDS011;27405;53.316;-6.294;2023-12-20T07:26:15;15.05;;;3.00;;
41719;SDS011;27405;53.316;-6.294;2023-12-20T07:28:40;15.00;;;3.38;;
41719;SDS011;27405;53.316;-6.294;2023-12-20T07:31:06;20.15;;;4.28;;
41719;SDS011;27405;53.316;-6.294;2023-12-20T07:33:31;19.67;;;3.67;;
41719;SDS011;27405;53.316;-6.294;2023-12-20T07:35:59;15.38;;;3.40;;
41719;SDS011;27405;53.316;-6.294;2023-12-20T07:38:24;16.15;;;3.15;;
41719;SDS011;27405;53.316;-6.294;2023-12-20T07:40:50;19.33;;;3.65;;
41719;SDS011;27405;53.316;-6.294;2023-12-20T07:43:15;21.02;;;4.20;;
41719;SDS011;27405;53.316;-6.294;2023-12-20T07:45:41;21.23;;;3.00;;
41719;SDS011;27405;53.316;-6.294;2023-12-20T07:48:07;17.23;;;2.85;;
41719;SDS011;27405;53.316;-6.294;2023-12-20T07:50:33;22.92;;;3.67;;
41719;SDS011;27405;53.316;-6.294;2023-12-20T07:52:59;17.63;;;3.10;;
41719;SDS011;27405;53.316;-6.294;2023-12-20T07:55:26;16.75;;;2.92;;
41719;SDS011;27405;53.316;-6.294;2023-12-20T07:57:52;20.17;;;3.25;;
41719;SDS011;27405;53.316;-6.294;2023-12-20T08:00:18;21.90;;;3.38;;
41719;SDS011;27405;53.316;-6.294;2023-12-20T08:02:44;22.77;;;3.38;;
41719;SDS011;27405;53.316;-6.294;2023-12-20T08:05:10;24.05;;;3.33;;
41719;SDS011;27405;53.316;-6.294;2023-12-20T08:07:36;27.50;;;3.95;;
41719;SDS011;27405;53.316;-6.294;2023-12-20T08:10:01;21.92;;;3.15;;
41719;SDS011;27405;53.316;-6.294;2023-12-20T08:12:27;22.65;;;3.40;;
41719;SDS011;27405;53.316;-6.294;2023-12-20T08:14:53;20.63;;;3.70;;
41719;SDS011;27405;53.316;-6.294;2023-12-20T08:17:19;23.63;;;3.50;;
41719;SDS011;27405;53.316;-6.294;2023-12-20T08:19:45;18.80;;;3.15;;
41719;SDS011;27405;53.316;-6.294;2023-12-20T08:22:11;19.17;;;3.17;;
41719;SDS011;27405;53.316;-6.294;2023-12-20T08:24:37;16.17;;;2.65;;
41719;SDS011;27405;53.316;-6.294;2023-12-20T08:27:03;19.40;;;3.33;;
41719;SDS011;27405;53.316;-6.294;2023-12-20T08:29:29;18.40;;;3.35;;
41719;SDS011;27405;53.316;-6.294;2023-12-20T08:31:55;17.38;;;2.60;;
41719;SDS011;27405;53.316;-6.294;2023-12-20T08:34:21;20.88;;;3.45;;
41719;SDS011;27405;53.316;-6.294;2023-12-20T08:36:47;19.67;;;3.42;;
41719;SDS011;27405;53.316;-6.294;2023-12-20T08:39:13;25.27;;;3.50;;
41719;SDS011;27405;53.316;-6.294;2023-12-20T08:41:38;18.80;;;3.55;;
41719;SDS011;27405;53.316;-6.294;2023-12-20T08:44:04;22.65;;;3.95;;
41719;SDS011;27405;53.316;-6.294;2023-12-20T08:46:30;20.77;;;3.72;;
41719;SDS011;27405;53.316;-6.294;2023-12-20T08:48:56;23.70;;;3.80;;
41719;SDS011;27405;53.316;-6.294;2023-12-20T08:51:21;28.85;;;3.83;;
41719;SDS011;27405;53.316;-6.294;2023-12-20T08:53:48;21.63;;;4.22;;
41719;SDS011;27405;53.316;-6.294;2023-12-20T08:56:14;23.42;;;3.92;;
41719;SDS011;27405;53.316;-6.294;2023-12-20T08:58:41;23.88;;;4.40;;
41719;SDS011;27405;53.316;-6.294;2023-12-20T09:01:08;23.67;;;4.63;;
41719;SDS011;27405;53.316;-6.294;2023-12-20T09:03:34;20.75;;;4.25;;
41719;SDS011;27405;53.316;-6.294;2023-12-20T09:06:00;21.50;;;3.67;;
41719;SDS011;27405;53.316;-6.294;2023-12-20T09:08:25;21.10;;;4.18;;
41719;SDS011;27405;53.316;-6.294;2023-12-20T09:10:51;27.40;;;4.68;;
41719;SDS011;27405;53.316;-6.294;2023-12-20T09:13:17;21.17;;;3.92;;
41719;SDS011;27405;53.316;-6.294;2023-12-20T09:15:42;23.67;;;3.90;;
41719;SDS011;27405;53.316;-6.294;2023-12-20T09:18:08;22.95;;;3.97;;
41719;SDS011;27405;53.316;-6.294;2023-12-20T09:20:34;25.88;;;4.20;;
41719;SDS011;27405;53.316;-6.294;2023-12-20T09:23:00;26.00;;;4.25;;
41719;SDS011;27405;53.316;-6.294;2023-12-20T09:25:25;26.23;;;4.43;;
41719;SDS011;27405;53.316;-6.294;2023-12-20T09:27:52;28.95;;;5.18;;
41719;SDS011;27405;53.316;-6.294;2023-12-20T09:30:18;25.83;;;4.82;;
41719;SDS011;27405;53.316;-6.294;2023-12-20T09:32:45;29.50;;;4.63;;
41719;SDS011;27405;53.316;-6.294;2023-12-20T09:35:12;27.35;;;4.38;;
41719;SDS011;27405;53.316;-6.294;2023-12-20T09:37:39;25.45;;;4.35;;
41719;SDS011;27405;53.316;-6.294;2023-12-20T09:40:10;27.02;;;4.70;;
41719;SDS011;27405;53.316;-6.294;2023-12-20T09:42:51;35.28;;;5.47;;
41719;SDS011;27405;53.316;-6.294;2023-12-20T09:45:27;24.23;;;5.25;;
41719;SDS011;27405;53.316;-6.294;2023-12-20T09:47:55;26.92;;;5.47;;
41719;SDS011;27405;53.316;-6.294;2023-12-20T09:50:22;31.02;;;5.15;;
41719;SDS011;27405;53.316;-6.294;2023-12-20T09:52:52;28.58;;;4.88;;
41719;SDS011;27405;53.316;-6.294;2023-12-20T09:55:21;23.95;;;5.30;;
41719;SDS011;27405;53.316;-6.294;2023-12-20T09:57:47;28.15;;;5.25;;
41719;SDS011;27405;53.316;-6.294;2023-12-20T10:00:14;28.08;;;5.20;;
41719;SDS011;27405;53.316;-6.294;2023-12-20T10:02:45;24.23;;;4.40;;
41719;SDS011;27405;53.316;-6.294;2023-12-20T10:05:16;31.77;;;5.15;;
41719;SDS011;27405;53.316;-6.294;2023-12-20T10:07:48;33.85;;;6.15;;
41719;SDS011;27405;53.316;-6.294;2023-12-20T10:10:14;24.92;;;5.22;;
41719;SDS011;27405;53.316;-6.294;2023-12-20T10:12:41;32.15;;;4.50;;
41719;SDS011;27405;53.316;-6.294;2023-12-20T10:15:28;26.33;;;4.30;;
41719;SDS011;27405;53.316;-6.294;2023-12-20T10:17:54;32.70;;;4.63;;
41719;SDS011;27405;53.316;-6.294;2023-12-20T10:20:21;28.38;;;5.22;;
41719;SDS011;27405;53.316;-6.294;2023-12-20T10:22:47;34.03;;;5.68;;
41719;SDS011;27405;53.316;-6.294;2023-12-20T10:25:15;27.80;;;5.38;;
41719;SDS011;27405;53.316;-6.294;2023-12-20T10:27:41;32.92;;;5.68;;
41719;SDS011;27405;53.316;-6.294;2023-12-20T10:30:07;34.70;;;6.47;;
41719;SDS011;27405;53.316;-6.294;2023-12-20T10:32:34;34.08;;;5.40;;
41719;SDS011;27405;53.316;-6.294;2023-12-20T10:35:00;29.83;;;5.20;;
41719;SDS011;27405;53.316;-6.294;2023-12-20T10:37:28;32.00;;;5.88;;
41719;SDS011;27405;53.316;-6.294;2023-12-20T10:39:54;35.42;;;6.60;;
41719;SDS011;27405;53.316;-6.294;2023-12-20T10:44:52;30.35;;;5.85;;
41719;SDS011;27405;53.316;-6.294;2023-12-20T10:47:19;39.00;;;6.68;;
41719;SDS011;27405;53.316;-6.294;2023-12-20T10:49:46;36.72;;;5.88;;
41719;SDS011;27405;53.316;-6.294;2023-12-20T10:52:13;36.70;;;6.20;;
41719;SDS011;27405;53.316;-6.294;2023-12-20T10:54:40;32.88;;;6.28;;
41719;SDS011;27405;53.316;-6.294;2023-12-20T10:57:06;35.38;;;6.22;;
41719;SDS011;27405;53.316;-6.294;2023-12-20T10:59:33;42.10;;;7.10;;
41719;SDS011;27405;53.316;-6.294;2023-12-20T11:02:02;39.38;;;7.07;;
41719;SDS011;27405;53.316;-6.294;2023-12-20T11:04:49;35.30;;;6.78;;
41719;SDS011;27405;53.316;-6.294;2023-12-20T11:07:42;39.95;;;7.32;;
41719;SDS011;27405;53.316;-6.294;2023-12-20T11:10:37;34.97;;;6.55;;
41719;SDS011;27405;53.316;-6.294;2023-12-20T11:13:16;32.83;;;6.50;;
41719;SDS011;27405;53.316;-6.294;2023-12-20T11:15:48;36.20;;;6.90;;
41719;SDS011;27405;53.316;-6.294;2023-12-20T11:18:15;37.60;;;6.65;;
41719;SDS011;27405;53.316;-6.294;2023-12-20T11:20:41;31.50;;;5.78;;
41719;SDS011;27405;53.316;-6.294;2023-12-20T11:23:08;44.47;;;6.32;;
41719;SDS011;27405;53.316;-6.294;2023-12-20T11:25:47;37.92;;;6.65;;
41719;SDS011;27405;53.316;-6.294;2023-12-20T11:28:20;37.63;;;7.20;;
41719;SDS011;27405;53.316;-6.294;2023-12-20T11:30:47;34.53;;;6.03;;
41719;SDS011;27405;53.316;-6.294;2023-12-20T11:33:15;35.75;;;6.18;;
41719;SDS011;27405;53.316;-6.294;2023-12-20T11:35:43;34.20;;;6.80;;
41719;SDS011;27405;53.316;-6.294;2023-12-20T11:40:40;34.63;;;6.57;;
41719;SDS011;27405;53.316;-6.294;2023-12-20T11:43:07;37.00;;;7.07;;
41719;SDS011;27405;53.316;-6.294;2023-12-20T11:45:33;31.77;;;6.00;;
41719;SDS011;27405;53.316;-6.294;2023-12-20T11:48:01;40.05;;;7.80;;
41719;SDS011;27405;53.316;-6.294;2023-12-20T11:50:28;39.70;;;7.40;;
41719;SDS011;27405;53.316;-6.294;2023-12-20T11:52:57;34.13;;;6.35;;
41719;SDS011;27405;53.316;-6.294;2023-12-20T11:55:24;45.17;;;7.70;;
41719;SDS011;27405;53.316;-6.294;2023-12-20T11:57:51;34.80;;;6.53;;
41719;SDS011;27405;53.316;-6.294;2023-12-20T12:00:18;38.92;;;7.60;;
41719;SDS011;27405;53.316;-6.294;2023-12-20T12:02:58;43.72;;;7.30;;
41719;SDS011;27405;53.316;-6.294;2023-12-20T12:05:24;40.72;;;7.03;;
41719;SDS011;27405;53.316;-6.294;2023-12-20T12:07:51;45.75;;;7.88;;
41719;SDS011;27405;53.316;-6.294;2023-12-20T12:10:17;40.28;;;7.55;;
41719;SDS011;27405;53.316;-6.294;2023-12-20T12:12:43;35.97;;;6.32;;
41719;SDS011;27405;53.316;-6.294;2023-12-20T12:15:10;33.50;;;6.93;;
41719;SDS011;27405;53.316;-6.294;2023-12-20T12:17:36;37.28;;;7.30;;
41719;SDS011;27405;53.316;-6.294;2023-12-20T12:20:04;44.83;;;8.18;;
41719;SDS011;27405;53.316;-6.294;2023-12-20T12:22:31;40.63;;;7.68;;
41719;SDS011;27405;53.316;-6.294;2023-12-20T12:24:58;38.45;;;6.85;;
41719;SDS011;27405;53.316;-6.294;2023-12-20T12:27:34;40.10;;;7.28;;
41719;SDS011;27405;53.316;-6.294;2023-12-20T12:30:01;41.95;;;7.30;;
41719;SDS011;27405;53.316;-6.294;2023-12-20T12:32:32;37.72;;;6.82;;
41719;SDS011;27405;53.316;-6.294;2023-12-20T12:34:58;49.58;;;8.48;;
41719;SDS011;27405;53.316;-6.294;2023-12-20T12:37:24;43.00;;;7.32;;
41719;SDS011;27405;53.316;-6.294;2023-12-20T12:39:53;34.50;;;6.53;;
41719;SDS011;27405;53.316;-6.294;2023-12-20T12:42:20;38.72;;;7.07;;
41719;SDS011;27405;53.316;-6.294;2023-12-20T12:44:46;35.08;;;6.70;;
41719;SDS011;27405;53.316;-6.294;2023-12-20T12:47:13;36.08;;;5.93;;
41719;SDS011;27405;53.316;-6.294;2023-12-20T12:49:40;41.45;;;7.15;;
41719;SDS011;27405;53.316;-6.294;2023-12-20T12:52:06;36.65;;;6.93;;
41719;SDS011;27405;53.316;-6.294;2023-12-20T12:54:33;36.50;;;7.28;;
41719;SDS011;27405;53.316;-6.294;2023-12-20T12:56:59;33.17;;;6.97;;
41719;SDS011;27405;53.316;-6.294;2023-12-20T12:59:25;37.00;;;6.72;;
41719;SDS011;27405;53.316;-6.294;2023-12-20T13:01:52;40.05;;;7.30;;
41719;SDS011;27405;53.316;-6.294;2023-12-20T13:04:18;32.03;;;6.05;;
41719;SDS011;27405;53.316;-6.294;2023-12-20T13:06:44;28.15;;;6.43;;
41719;SDS011;27405;53.316;-6.294;2023-12-20T13:09:10;28.95;;;6.20;;
41719;SDS011;27405;53.316;-6.294;2023-12-20T13:11:37;31.88;;;6.05;;
41719;SDS011;27405;53.316;-6.294;2023-12-20T13:14:03;35.20;;;6.90;;
41719;SDS011;27405;53.316;-6.294;2023-12-20T13:16:29;36.42;;;6.68;;
41719;SDS011;27405;53.316;-6.294;2023-12-20T13:18:55;34.50;;;7.05;;
41719;SDS011;27405;53.316;-6.294;2023-12-20T13:21:22;29.55;;;6.00;;
41719;SDS011;27405;53.316;-6.294;2023-12-20T13:23:48;40.28;;;7.25;;
41719;SDS011;27405;53.316;-6.294;2023-12-20T13:26:14;37.70;;;7.40;;
41719;SDS011;27405;53.316;-6.294;2023-12-20T13:28:40;34.38;;;5.93;;
41719;SDS011;27405;53.316;-6.294;2023-12-20T13:31:07;29.55;;;5.60;;
41719;SDS011;27405;53.316;-6.294;2023-12-20T13:33:33;31.95;;;6.75;;
41719;SDS011;27405;53.316;-6.294;2023-12-20T13:36:00;29.70;;;5.53;;
41719;SDS011;27405;53.316;-6.294;2023-12-20T13:38:26;33.03;;;6.55;;
41719;SDS011;27405;53.316;-6.294;2023-12-20T13:40:52;35.60;;;7.03;;
41719;SDS011;27405;53.316;-6.294;2023-12-20T13:43:18;36.72;;;6.70;;
41719;SDS011;27405;53.316;-6.294;2023-12-20T13:45:47;34.97;;;7.32;;
41719;SDS011;27405;53.316;-6.294;2023-12-20T13:48:13;32.20;;;6.10;;
41719;SDS011;27405;53.316;-6.294;2023-12-20T13:50:39;37.35;;;8.18;;
41719;SDS011;27405;53.316;-6.294;2023-12-20T13:53:06;38.08;;;6.88;;
41719;SDS011;27405;53.316;-6.294;2023-12-20T13:55:32;35.15;;;7.72;;
41719;SDS011;27405;53.316;-6.294;2023-12-20T13:57:58;36.33;;;7.68;;
41719;SDS011;27405;53.316;-6.294;2023-12-20T14:00:25;40.00;;;8.00;;
41719;SDS011;27405;53.316;-6.294;2023-12-20T14:02:51;37.03;;;7.72;;
41719;SDS011;27405;53.316;-6.294;2023-12-20T14:05:18;31.10;;;5.78;;
41719;SDS011;27405;53.316;-6.294;2023-12-20T14:07:44;33.17;;;5.80;;
41719;SDS011;27405;53.316;-6.294;2023-12-20T14:10:13;31.95;;;6.28;;
41719;SDS011;27405;53.316;-6.294;2023-12-20T14:15:05;31.27;;;5.95;;
41719;SDS011;27405;53.316;-6.294;2023-12-20T14:17:38;40.17;;;6.40;;
41719;SDS011;27405;53.316;-6.294;2023-12-20T14:20:06;37.15;;;6.25;;
41719;SDS011;27405;53.316;-6.294;2023-12-20T14:22:33;33.30;;;6.15;;
41719;SDS011;27405;53.316;-6.294;2023-12-20T14:24:58;29.55;;;5.57;;
41719;SDS011;27405;53.316;-6.294;2023-12-20T14:27:25;29.35;;;5.97;;